sensor_id;sensor_type;location;lat;lon;timestamp;temperature;humidity
20929;DHT22;21895;47.072;15.132;2022-07-17T00:00:48;16.90;99.90
20929;DHT22;21895;47.072;15.132;2022-07-17T00:03:16;16.90;99.90
20929;DHT22;21895;47.072;15.132;2022-07-17T00:05:45;17.00;99.90
20929;DHT22;21895;47.072;15.132;2022-07-17T00:08:12;17.00;99.90
20929;DHT22;21895;47.072;15.132;2022-07-17T00:10:41;17.00;99.90
20929;DHT22;21895;47.072;15.132;2022-07-17T00:13:09;17.00;99.90
20929;DHT22;21895;47.072;15.132;2022-07-17T00:15:36;17.10;99.90
20929;DHT22;21895;47.072;15.132;2022-07-17T00:18:03;17.00;99.90
20929;DHT22;21895;47.072;15.132;2022-07-17T00:20:30;17.10;99.90
20929;DHT22;21895;47.072;15.132;2022-07-17T00:22:57;17.00;99.90
20929;DHT22;21895;47.072;15.132;2022-07-17T00:25:24;17.00;99.90
20929;DHT22;21895;47.072;15.132;2022-07-17T00:27:51;17.00;99.90
20929;DHT22;21895;47.072;15.132;2022-07-17T00:30:19;17.00;99.90
20929;DHT22;21895;47.072;15.132;2022-07-17T00:32:45;17.00;99.90
20929;DHT22;21895;47.072;15.132;2022-07-17T00:35:12;17.00;99.90
20929;DHT22;21895;47.072;15.132;2022-07-17T00:37:47;16.90;99.90
20929;DHT22;21895;47.072;15.132;2022-07-17T00:40:22;16.80;99.90
20929;DHT22;21895;47.072;15.132;2022-07-17T00:42:50;16.90;99.90
20929;DHT22;21895;47.072;15.132;2022-07-17T00:45:18;17.00;99.90
20929;DHT22;21895;47.072;15.132;2022-07-17T00:48:03;17.00;99.90
20929;DHT22;21895;47.072;15.132;2022-07-17T00:50:37;17.00;99.90
20929;DHT22;21895;47.072;15.132;2022-07-17T00:53:06;16.80;99.90
20929;DHT22;21895;47.072;15.132;2022-07-17T00:55:33;16.80;99.90
20929;DHT22;21895;47.072;15.132;2022-07-17T00:58:11;16.70;99.90
20929;DHT22;21895;47.072;15.132;2022-07-17T01:00:43;16.60;99.90
20929;DHT22;21895;47.072;15.132;2022-07-17T01:03:10;16.60;99.90
20929;DHT22;21895;47.072;15.132;2022-07-17T01:05:37;16.50;99.90
20929;DHT22;21895;47.072;15.132;2022-07-17T01:08:04;16.40;99.90
20929;DHT22;21895;47.072;15.132;2022-07-17T01:10:31;16.40;99.90
20929;DHT22;21895;47.072;15.132;2022-07-17T01:12:57;16.50;99.90
20929;DHT22;21895;47.072;15.132;2022-07-17T01:15:24;16.40;99.90
20929;DHT22;21895;47.072;15.132;2022-07-17T01:17:52;16.30;99.90
20929;DHT22;21895;47.072;15.132;2022-07-17T01:20:19;16.20;99.90
20929;DHT22;21895;47.072;15.132;2022-07-17T01:22:48;16.20;99.90
20929;DHT22;21895;47.072;15.132;2022-07-17T01:25:21;16.10;99.90
20929;DHT22;21895;47.072;15.132;2022-07-17T01:27:49;16.10;99.90
20929;DHT22;21895;47.072;15.132;2022-07-17T01:30:17;16.00;99.90
20929;DHT22;21895;47.072;15.132;2022-07-17T01:32:44;15.80;99.90
20929;DHT22;21895;47.072;15.132;2022-07-17T01:35:13;15.70;99.90
20929;DHT22;21895;47.072;15.132;2022-07-17T01:37:42;15.70;99.90
20929;DHT22;21895;47.072;15.132;2022-07-17T01:40:11;15.70;99.90
20929;DHT22;21895;47.072;15.132;2022-07-17T01:42:43;15.60;99.90
20929;DHT22;21895;47.072;15.132;2022-07-17T01:45:16;15.70;99.90
20929;DHT22;21895;47.072;15.132;2022-07-17T01:47:44;15.80;99.90
20929;DHT22;21895;47.072;15.132;2022-07-17T01:50:12;15.60;99.90
20929;DHT22;21895;47.072;15.132;2022-07-17T01:52:41;15.60;99.90
20929;DHT22;21895;47.072;15.132;2022-07-17T01:55:12;15.70;99.90
20929;DHT22;21895;47.072;15.132;2022-07-17T01:57:41;15.70;99.90
20929;DHT22;21895;47.072;15.132;2022-07-17T02:00:12;15.60;99.90
20929;DHT22;21895;47.072;15.132;2022-07-17T02:02:43;15.60;99.90
20929;DHT22;21895;47.072;15.132;2022-07-17T02:05:10;15.60;99.90
20929;DHT22;21895;47.072;15.132;2022-07-17T02:07:37;15.50;99.90
20929;DHT22;21895;47.072;15.132;2022-07-17T02:10:10;15.50;99.90
20929;DHT22;21895;47.072;15.132;2022-07-17T02:12:39;15.50;99.90
20929;DHT22;21895;47.072;15.132;2022-07-17T02:15:07;15.50;99.90
20929;DHT22;21895;47.072;15.132;2022-07-17T02:17:33;15.30;99.90
20929;DHT22;21895;47.072;15.132;2022-07-17T02:20:00;15.20;99.90
20929;DHT22;21895;47.072;15.132;2022-07-17T02:22:27;15.20;99.90
20929;DHT22;21895;47.072;15.132;2022-07-17T02:24:54;15.20;99.90
20929;DHT22;21895;47.072;15.132;2022-07-17T02:27:20;15.40;99.90
20929;DHT22;21895;47.072;15.132;2022-07-17T02:29:47;15.40;99.90
20929;DHT22;21895;47.072;15.132;2022-07-17T02:32:13;15.20;99.90
20929;DHT22;21895;47.072;15.132;2022-07-17T02:34:40;15.30;99.90
20929;DHT22;21895;47.072;15.132;2022-07-17T02:37:06;15.40;99.90
20929;DHT22;21895;47.072;15.132;2022-07-17T02:39:33;15.40;99.90
20929;DHT22;21895;47.072;15.132;2022-07-17T02:41:59;15.50;99.90
20929;DHT22;21895;47.072;15.132;2022-07-17T02:44:26;15.50;99.90
20929;DHT22;21895;47.072;15.132;2022-07-17T02:46:52;15.40;99.90
20929;DHT22;21895;47.072;15.132;2022-07-17T02:49:19;15.20;99.90
20929;DHT22;21895;47.072;15.132;2022-07-17T02:51:45;15.30;99.90
20929;DHT22;21895;47.072;15.132;2022-07-17T02:54:12;15.20;99.90
20929;DHT22;21895;47.072;15.132;2022-07-17T02:56:38;15.20;99.90
20929;DHT22;21895;47.072;15.132;2022-07-17T02:59:05;15.10;99.90
20929;DHT22;21895;47.072;15.132;2022-07-17T03:01:31;15.10;99.90
20929;DHT22;21895;47.072;15.132;2022-07-17T03:03:59;15.20;99.90
20929;DHT22;21895;47.072;15.132;2022-07-17T03:06:25;15.20;99.90
20929;DHT22;21895;47.072;15.132;2022-07-17T03:08:52;15.10;99.90
20929;DHT22;21895;47.072;15.132;2022-07-17T03:11:19;15.20;99.90
20929;DHT22;21895;47.072;15.132;2022-07-17T03:13:45;15.10;99.90
20929;DHT22;21895;47.072;15.132;2022-07-17T03:16:12;15.10;99.90
20929;DHT22;21895;47.072;15.132;2022-07-17T03:18:39;15.20;99.90
20929;DHT22;21895;47.072;15.132;2022-07-17T03:21:05;15.20;99.90
20929;DHT22;21895;47.072;15.132;2022-07-17T03:23:32;15.20;99.90
20929;DHT22;21895;47.072;15.132;2022-07-17T03:25:58;15.40;99.90
20929;DHT22;21895;47.072;15.132;2022-07-17T03:28:25;15.40;99.90
20929;DHT22;21895;47.072;15.132;2022-07-17T03:30:51;15.30;99.90
20929;DHT22;21895;47.072;15.132;2022-07-17T03:33:18;15.40;99.90
20929;DHT22;21895;47.072;15.132;2022-07-17T03:35:44;15.40;99.90
20929;DHT22;21895;47.072;15.132;2022-07-17T03:38:11;15.50;99.90
20929;DHT22;21895;47.072;15.132;2022-07-17T03:40:38;15.70;99.90
20929;DHT22;21895;47.072;15.132;2022-07-17T03:43:04;15.80;99.90
20929;DHT22;21895;47.072;15.132;2022-07-17T03:45:31;15.80;99.90
20929;DHT22;21895;47.072;15.132;2022-07-17T03:47:57;15.80;99.90
20929;DHT22;21895;47.072;15.132;2022-07-17T03:50:24;15.80;99.90
20929;DHT22;21895;47.072;15.132;2022-07-17T03:52:50;15.80;99.90
20929;DHT22;21895;47.072;15.132;2022-07-17T03:55:17;15.80;99.90
20929;DHT22;21895;47.072;15.132;2022-07-17T03:57:44;15.90;99.90
20929;DHT22;21895;47.072;15.132;2022-07-17T04:00:10;15.90;99.90
20929;DHT22;21895;47.072;15.132;2022-07-17T04:02:37;16.10;99.90
20929;DHT22;21895;47.072;15.132;2022-07-17T04:05:04;16.00;99.90
20929;DHT22;21895;47.072;15.132;2022-07-17T04:07:40;16.10;99.90
20929;DHT22;21895;47.072;15.132;2022-07-17T04:10:08;16.20;99.90
20929;DHT22;21895;47.072;15.132;2022-07-17T04:12:36;16.20;99.90
20929;DHT22;21895;47.072;15.132;2022-07-17T04:15:04;16.30;99.90
20929;DHT22;21895;47.072;15.132;2022-07-17T04:17:32;16.40;99.90
20929;DHT22;21895;47.072;15.132;2022-07-17T04:19:59;16.40;99.90
20929;DHT22;21895;47.072;15.132;2022-07-17T04:22:25;16.40;99.90
20929;DHT22;21895;47.072;15.132;2022-07-17T04:24:52;16.40;99.90
20929;DHT22;21895;47.072;15.132;2022-07-17T04:27:19;16.40;99.90
20929;DHT22;21895;47.072;15.132;2022-07-17T04:29:45;16.40;99.90
20929;DHT22;21895;47.072;15.132;2022-07-17T04:32:12;16.50;99.90
20929;DHT22;21895;47.072;15.132;2022-07-17T04:34:39;16.60;99.90
20929;DHT22;21895;47.072;15.132;2022-07-17T04:37:05;16.80;99.90
20929;DHT22;21895;47.072;15.132;2022-07-17T04:42:18;17.00;99.90
20929;DHT22;21895;47.072;15.132;2022-07-17T04:44:45;17.20;99.90
20929;DHT22;21895;47.072;15.132;2022-07-17T04:47:11;17.20;99.90
20929;DHT22;21895;47.072;15.132;2022-07-17T04:49:38;17.30;99.90
20929;DHT22;21895;47.072;15.132;2022-07-17T04:52:04;17.40;99.90
20929;DHT22;21895;47.072;15.132;2022-07-17T04:54:31;17.50;99.90
20929;DHT22;21895;47.072;15.132;2022-07-17T04:56:57;17.60;99.90
20929;DHT22;21895;47.072;15.132;2022-07-17T04:59:24;17.70;99.90
20929;DHT22;21895;47.072;15.132;2022-07-17T05:01:51;17.80;99.90
20929;DHT22;21895;47.072;15.132;2022-07-17T05:04:17;18.00;99.90
20929;DHT22;21895;47.072;15.132;2022-07-17T05:06:51;18.20;99.90
20929;DHT22;21895;47.072;15.132;2022-07-17T05:09:18;18.40;99.90
20929;DHT22;21895;47.072;15.132;2022-07-17T05:11:44;18.70;99.90
20929;DHT22;21895;47.072;15.132;2022-07-17T05:14:11;19.20;99.90
20929;DHT22;21895;47.072;15.132;2022-07-17T05:16:37;19.60;99.90
20929;DHT22;21895;47.072;15.132;2022-07-17T05:19:05;20.00;99.90
20929;DHT22;21895;47.072;15.132;2022-07-17T05:21:32;20.60;98.80
20929;DHT22;21895;47.072;15.132;2022-07-17T05:23:58;20.80;97.90
20929;DHT22;21895;47.072;15.132;2022-07-17T05:26:25;20.80;97.80
20929;DHT22;21895;47.072;15.132;2022-07-17T05:28:52;20.80;98.00
20929;DHT22;21895;47.072;15.132;2022-07-17T05:31:18;21.00;98.10
20929;DHT22;21895;47.072;15.132;2022-07-17T05:33:45;21.20;97.80
20929;DHT22;21895;47.072;15.132;2022-07-17T05:36:12;21.50;97.60
20929;DHT22;21895;47.072;15.132;2022-07-17T05:38:38;21.70;98.10
20929;DHT22;21895;47.072;15.132;2022-07-17T05:41:05;21.90;97.80
20929;DHT22;21895;47.072;15.132;2022-07-17T05:43:32;22.00;97.20
20929;DHT22;21895;47.072;15.132;2022-07-17T05:45:59;22.30;97.40
20929;DHT22;21895;47.072;15.132;2022-07-17T05:48:26;22.60;96.50
20929;DHT22;21895;47.072;15.132;2022-07-17T05:50:53;22.80;96.10
20929;DHT22;21895;47.072;15.132;2022-07-17T05:53:19;22.90;94.60
20929;DHT22;21895;47.072;15.132;2022-07-17T05:55:46;23.20;94.90
20929;DHT22;21895;47.072;15.132;2022-07-17T05:58:13;23.50;94.40
20929;DHT22;21895;47.072;15.132;2022-07-17T06:00:39;23.70;93.10
20929;DHT22;21895;47.072;15.132;2022-07-17T06:03:06;23.80;93.70
20929;DHT22;21895;47.072;15.132;2022-07-17T06:05:32;23.90;92.80
20929;DHT22;21895;47.072;15.132;2022-07-17T06:07:59;23.90;93.20
20929;DHT22;21895;47.072;15.132;2022-07-17T06:10:27;23.90;92.70
20929;DHT22;21895;47.072;15.132;2022-07-17T06:12:54;24.10;92.50
20929;DHT22;21895;47.072;15.132;2022-07-17T06:15:22;24.10;92.10
20929;DHT22;21895;47.072;15.132;2022-07-17T06:17:50;24.20;91.50
20929;DHT22;21895;47.072;15.132;2022-07-17T06:20:18;24.10;91.40
20929;DHT22;21895;47.072;15.132;2022-07-17T06:22:45;24.10;92.00
20929;DHT22;21895;47.072;15.132;2022-07-17T06:25:12;24.10;91.80
20929;DHT22;21895;47.072;15.132;2022-07-17T06:27:40;24.20;90.40
20929;DHT22;21895;47.072;15.132;2022-07-17T06:30:09;24.20;90.70
20929;DHT22;21895;47.072;15.132;2022-07-17T06:32:37;24.30;90.90
20929;DHT22;21895;47.072;15.132;2022-07-17T06:35:05;24.20;90.10
20929;DHT22;21895;47.072;15.132;2022-07-17T06:37:33;23.70;90.00
20929;DHT22;21895;47.072;15.132;2022-07-17T06:40:01;23.60;90.70
20929;DHT22;21895;47.072;15.132;2022-07-17T06:42:27;23.50;90.80
20929;DHT22;21895;47.072;15.132;2022-07-17T06:44:58;23.50;90.50
20929;DHT22;21895;47.072;15.132;2022-07-17T06:47:24;23.60;90.20
20929;DHT22;21895;47.072;15.132;2022-07-17T06:49:51;23.70;90.10
20929;DHT22;21895;47.072;15.132;2022-07-17T06:52:17;23.70;90.50
20929;DHT22;21895;47.072;15.132;2022-07-17T06:54:44;23.80;90.70
20929;DHT22;21895;47.072;15.132;2022-07-17T06:57:10;23.80;90.20
20929;DHT22;21895;47.072;15.132;2022-07-17T06:59:37;23.80;90.40
20929;DHT22;21895;47.072;15.132;2022-07-17T07:02:04;23.90;91.00
20929;DHT22;21895;47.072;15.132;2022-07-17T07:04:30;24.10;90.50
20929;DHT22;21895;47.072;15.132;2022-07-17T07:06:57;24.20;90.70
20929;DHT22;21895;47.072;15.132;2022-07-17T07:09:23;24.30;90.70
20929;DHT22;21895;47.072;15.132;2022-07-17T07:11:51;24.40;90.90
20929;DHT22;21895;47.072;15.132;2022-07-17T07:14:18;24.30;91.00
20929;DHT22;21895;47.072;15.132;2022-07-17T07:16:45;24.40;91.00
20929;DHT22;21895;47.072;15.132;2022-07-17T07:19:12;24.50;90.60
20929;DHT22;21895;47.072;15.132;2022-07-17T07:21:38;24.60;90.80
20929;DHT22;21895;47.072;15.132;2022-07-17T07:24:06;24.60;89.00
20929;DHT22;21895;47.072;15.132;2022-07-17T07:26:33;24.30;89.80
20929;DHT22;21895;47.072;15.132;2022-07-17T07:28:59;24.30;89.60
20929;DHT22;21895;47.072;15.132;2022-07-17T07:31:26;24.20;88.60
20929;DHT22;21895;47.072;15.132;2022-07-17T07:33:53;24.30;87.80
20929;DHT22;21895;47.072;15.132;2022-07-17T07:36:19;24.10;87.30
20929;DHT22;21895;47.072;15.132;2022-07-17T07:38:50;24.30;88.70
20929;DHT22;21895;47.072;15.132;2022-07-17T07:41:20;24.40;88.20
20929;DHT22;21895;47.072;15.132;2022-07-17T07:43:46;24.60;89.10
20929;DHT22;21895;47.072;15.132;2022-07-17T07:46:13;24.50;89.50
20929;DHT22;21895;47.072;15.132;2022-07-17T07:48:39;24.60;86.60
20929;DHT22;21895;47.072;15.132;2022-07-17T07:51:06;24.70;89.90
20929;DHT22;21895;47.072;15.132;2022-07-17T07:53:33;24.80;88.60
20929;DHT22;21895;47.072;15.132;2022-07-17T07:55:59;24.90;88.00
20929;DHT22;21895;47.072;15.132;2022-07-17T07:58:26;24.90;87.70
20929;DHT22;21895;47.072;15.132;2022-07-17T08:00:52;24.90;87.20
20929;DHT22;21895;47.072;15.132;2022-07-17T08:03:19;24.90;87.10
20929;DHT22;21895;47.072;15.132;2022-07-17T08:05:51;24.80;88.30
20929;DHT22;21895;47.072;15.132;2022-07-17T08:08:17;25.00;88.40
20929;DHT22;21895;47.072;15.132;2022-07-17T08:10:44;25.10;87.30
20929;DHT22;21895;47.072;15.132;2022-07-17T08:13:11;25.10;87.60
20929;DHT22;21895;47.072;15.132;2022-07-17T08:15:37;24.80;86.80
20929;DHT22;21895;47.072;15.132;2022-07-17T08:18:04;25.00;86.60
20929;DHT22;21895;47.072;15.132;2022-07-17T08:20:30;25.10;87.30
20929;DHT22;21895;47.072;15.132;2022-07-17T08:22:58;25.10;86.50
20929;DHT22;21895;47.072;15.132;2022-07-17T08:25:31;25.20;87.10
20929;DHT22;21895;47.072;15.132;2022-07-17T08:27:58;25.20;85.90
20929;DHT22;21895;47.072;15.132;2022-07-17T08:30:25;25.30;84.90
20929;DHT22;21895;47.072;15.132;2022-07-17T08:32:52;25.10;85.70
20929;DHT22;21895;47.072;15.132;2022-07-17T08:35:18;25.40;87.80
20929;DHT22;21895;47.072;15.132;2022-07-17T08:37:52;25.50;84.10
20929;DHT22;21895;47.072;15.132;2022-07-17T08:40:27;25.40;85.60
20929;DHT22;21895;47.072;15.132;2022-07-17T08:42:57;25.40;84.90
20929;DHT22;21895;47.072;15.132;2022-07-17T08:45:26;25.40;85.80
20929;DHT22;21895;47.072;15.132;2022-07-17T08:47:54;25.40;83.20
20929;DHT22;21895;47.072;15.132;2022-07-17T08:50:25;25.40;85.00
20929;DHT22;21895;47.072;15.132;2022-07-17T08:52:57;25.40;87.20
20929;DHT22;21895;47.072;15.132;2022-07-17T08:55:24;25.60;83.80
20929;DHT22;21895;47.072;15.132;2022-07-17T08:57:51;25.50;85.80
20929;DHT22;21895;47.072;15.132;2022-07-17T09:00:20;25.50;86.40
20929;DHT22;21895;47.072;15.132;2022-07-17T09:03:02;25.70;83.90
20929;DHT22;21895;47.072;15.132;2022-07-17T09:05:36;25.60;84.30
20929;DHT22;21895;47.072;15.132;2022-07-17T09:08:08;25.70;82.10
20929;DHT22;21895;47.072;15.132;2022-07-17T09:10:44;25.60;82.50
20929;DHT22;21895;47.072;15.132;2022-07-17T09:13:29;25.70;84.00
20929;DHT22;21895;47.072;15.132;2022-07-17T09:16:08;25.70;83.20
20929;DHT22;21895;47.072;15.132;2022-07-17T09:18:49;25.70;82.10
20929;DHT22;21895;47.072;15.132;2022-07-17T09:21:24;25.30;83.60
20929;DHT22;21895;47.072;15.132;2022-07-17T09:24:05;25.50;83.50
20929;DHT22;21895;47.072;15.132;2022-07-17T09:26:35;25.70;84.10
20929;DHT22;21895;47.072;15.132;2022-07-17T09:29:09;25.70;83.80
20929;DHT22;21895;47.072;15.132;2022-07-17T09:31:38;25.70;83.70
20929;DHT22;21895;47.072;15.132;2022-07-17T09:34:05;25.70;86.50
20929;DHT22;21895;47.072;15.132;2022-07-17T09:36:42;26.00;83.10
20929;DHT22;21895;47.072;15.132;2022-07-17T09:39:09;26.10;82.50
20929;DHT22;21895;47.072;15.132;2022-07-17T09:41:36;26.10;83.20
20929;DHT22;21895;47.072;15.132;2022-07-17T09:44:03;26.00;82.50
20929;DHT22;21895;47.072;15.132;2022-07-17T09:46:32;26.10;83.30
20929;DHT22;21895;47.072;15.132;2022-07-17T09:49:02;25.90;82.00
20929;DHT22;21895;47.072;15.132;2022-07-17T09:51:35;25.80;82.10
20929;DHT22;21895;47.072;15.132;2022-07-17T09:54:07;25.80;82.90
20929;DHT22;21895;47.072;15.132;2022-07-17T09:56:37;26.10;83.30
20929;DHT22;21895;47.072;15.132;2022-07-17T09:59:08;26.20;81.90
20929;DHT22;21895;47.072;15.132;2022-07-17T10:01:38;26.10;81.40
20929;DHT22;21895;47.072;15.132;2022-07-17T10:04:10;26.00;83.10
20929;DHT22;21895;47.072;15.132;2022-07-17T10:06:37;26.10;83.10
20929;DHT22;21895;47.072;15.132;2022-07-17T10:09:05;26.20;82.60
20929;DHT22;21895;47.072;15.132;2022-07-17T10:11:35;26.30;83.10
20929;DHT22;21895;47.072;15.132;2022-07-17T10:14:14;26.30;82.60
20929;DHT22;21895;47.072;15.132;2022-07-17T10:16:41;26.50;82.90
20929;DHT22;21895;47.072;15.132;2022-07-17T10:19:19;26.40;81.80
20929;DHT22;21895;47.072;15.132;2022-07-17T10:21:58;26.30;81.40
20929;DHT22;21895;47.072;15.132;2022-07-17T10:24:29;26.40;82.10
20929;DHT22;21895;47.072;15.132;2022-07-17T10:26:57;26.50;82.50
20929;DHT22;21895;47.072;15.132;2022-07-17T10:29:35;26.50;81.60
20929;DHT22;21895;47.072;15.132;2022-07-17T10:32:17;26.50;81.10
20929;DHT22;21895;47.072;15.132;2022-07-17T10:34:47;26.30;82.10
20929;DHT22;21895;47.072;15.132;2022-07-17T10:37:27;26.30;84.10
20929;DHT22;21895;47.072;15.132;2022-07-17T10:43:02;26.20;80.70
20929;DHT22;21895;47.072;15.132;2022-07-17T10:45:41;26.40;81.50
20929;DHT22;21895;47.072;15.132;2022-07-17T10:48:17;26.50;81.50
20929;DHT22;21895;47.072;15.132;2022-07-17T10:50:51;26.50;80.40
20929;DHT22;21895;47.072;15.132;2022-07-17T10:53:24;26.50;82.40
20929;DHT22;21895;47.072;15.132;2022-07-17T10:56:05;26.60;81.10
20929;DHT22;21895;47.072;15.132;2022-07-17T10:58:38;26.70;81.20
20929;DHT22;21895;47.072;15.132;2022-07-17T11:01:18;26.70;81.90
20929;DHT22;21895;47.072;15.132;2022-07-17T11:03:56;26.60;79.90
20929;DHT22;21895;47.072;15.132;2022-07-17T11:06:30;26.40;80.70
20929;DHT22;21895;47.072;15.132;2022-07-17T11:09:01;26.40;80.40
20929;DHT22;21895;47.072;15.132;2022-07-17T11:11:46;26.50;81.40
20929;DHT22;21895;47.072;15.132;2022-07-17T11:14:20;26.60;80.00
20929;DHT22;21895;47.072;15.132;2022-07-17T11:16:59;26.60;80.90
20929;DHT22;21895;47.072;15.132;2022-07-17T11:19:38;26.60;82.60
20929;DHT22;21895;47.072;15.132;2022-07-17T11:22:10;26.70;80.70
20929;DHT22;21895;47.072;15.132;2022-07-17T11:24:47;26.70;80.80
20929;DHT22;21895;47.072;15.132;2022-07-17T11:27:23;26.70;80.50
20929;DHT22;21895;47.072;15.132;2022-07-17T11:29:54;26.80;81.10
20929;DHT22;21895;47.072;15.132;2022-07-17T11:32:22;26.90;80.70
20929;DHT22;21895;47.072;15.132;2022-07-17T11:34:49;26.80;79.90
20929;DHT22;21895;47.072;15.132;2022-07-17T11:37:15;26.80;81.60
20929;DHT22;21895;47.072;15.132;2022-07-17T11:39:47;27.00;80.70
20929;DHT22;21895;47.072;15.132;2022-07-17T11:42:17;26.70;80.20
20929;DHT22;21895;47.072;15.132;2022-07-17T11:44:46;26.70;81.60
20929;DHT22;21895;47.072;15.132;2022-07-17T11:47:21;26.80;79.60
20929;DHT22;21895;47.072;15.132;2022-07-17T11:49:49;26.90;79.60
20929;DHT22;21895;47.072;15.132;2022-07-17T11:52:18;26.90;78.90
20929;DHT22;21895;47.072;15.132;2022-07-17T11:54:55;26.70;81.00
20929;DHT22;21895;47.072;15.132;2022-07-17T11:57:25;26.50;80.80
20929;DHT22;21895;47.072;15.132;2022-07-17T11:59:53;26.50;79.80
20929;DHT22;21895;47.072;15.132;2022-07-17T12:02:32;26.30;81.00
20929;DHT22;21895;47.072;15.132;2022-07-17T12:04:59;26.30;82.70
20929;DHT22;21895;47.072;15.132;2022-07-17T12:07:38;26.30;80.30
20929;DHT22;21895;47.072;15.132;2022-07-17T12:10:20;26.30;81.20
20929;DHT22;21895;47.072;15.132;2022-07-17T12:13:00;26.40;81.90
20929;DHT22;21895;47.072;15.132;2022-07-17T12:15:44;26.50;80.30
20929;DHT22;21895;47.072;15.132;2022-07-17T12:18:24;26.60;80.60
20929;DHT22;21895;47.072;15.132;2022-07-17T12:20:55;26.50;81.50
20929;DHT22;21895;47.072;15.132;2022-07-17T12:23:35;26.50;82.40
20929;DHT22;21895;47.072;15.132;2022-07-17T12:26:15;26.60;80.80
20929;DHT22;21895;47.072;15.132;2022-07-17T12:28:45;26.50;80.40
20929;DHT22;21895;47.072;15.132;2022-07-17T12:31:13;26.70;81.60
20929;DHT22;21895;47.072;15.132;2022-07-17T12:33:40;26.80;80.00
20929;DHT22;21895;47.072;15.132;2022-07-17T12:36:08;26.80;80.60
20929;DHT22;21895;47.072;15.132;2022-07-17T12:38:35;26.70;81.70
20929;DHT22;21895;47.072;15.132;2022-07-17T12:41:01;26.70;81.10
20929;DHT22;21895;47.072;15.132;2022-07-17T12:43:28;26.80;80.80
20929;DHT22;21895;47.072;15.132;2022-07-17T12:45:55;26.90;82.30
20929;DHT22;21895;47.072;15.132;2022-07-17T12:48:30;26.90;84.10
20929;DHT22;21895;47.072;15.132;2022-07-17T12:50:57;26.90;82.20
20929;DHT22;21895;47.072;15.132;2022-07-17T12:53:24;27.00;82.20
20929;DHT22;21895;47.072;15.132;2022-07-17T12:55:51;26.90;82.80
20929;DHT22;21895;47.072;15.132;2022-07-17T12:58:17;26.90;82.10
20929;DHT22;21895;47.072;15.132;2022-07-17T13:00:44;26.80;82.00
20929;DHT22;21895;47.072;15.132;2022-07-17T13:03:11;26.80;81.50
20929;DHT22;21895;47.072;15.132;2022-07-17T13:05:38;26.80;82.50
20929;DHT22;21895;47.072;15.132;2022-07-17T13:08:05;26.80;82.10
20929;DHT22;21895;47.072;15.132;2022-07-17T13:10:34;26.70;82.30
20929;DHT22;21895;47.072;15.132;2022-07-17T13:13:01;26.70;80.60
20929;DHT22;21895;47.072;15.132;2022-07-17T13:15:28;26.80;81.40
20929;DHT22;21895;47.072;15.132;2022-07-17T13:17:54;26.80;82.70
20929;DHT22;21895;47.072;15.132;2022-07-17T13:20:21;26.90;82.80
20929;DHT22;21895;47.072;15.132;2022-07-17T13:22:48;26.90;81.40
20929;DHT22;21895;47.072;15.132;2022-07-17T13:25:15;26.80;82.50
20929;DHT22;21895;47.072;15.132;2022-07-17T13:27:41;26.70;84.50
20929;DHT22;21895;47.072;15.132;2022-07-17T13:30:10;26.70;82.80
20929;DHT22;21895;47.072;15.132;2022-07-17T13:32:37;26.70;84.20
20929;DHT22;21895;47.072;15.132;2022-07-17T13:35:05;26.90;82.50
20929;DHT22;21895;47.072;15.132;2022-07-17T13:37:32;26.90;83.30
20929;DHT22;21895;47.072;15.132;2022-07-17T13:39:59;26.80;82.80
20929;DHT22;21895;47.072;15.132;2022-07-17T13:42:25;26.70;83.70
20929;DHT22;21895;47.072;15.132;2022-07-17T13:44:52;26.70;83.30
20929;DHT22;21895;47.072;15.132;2022-07-17T13:47:20;26.60;81.60
20929;DHT22;21895;47.072;15.132;2022-07-17T13:49:48;26.50;82.50
20929;DHT22;21895;47.072;15.132;2022-07-17T13:52:14;26.60;82.90
20929;DHT22;21895;47.072;15.132;2022-07-17T13:54:41;26.70;82.80
20929;DHT22;21895;47.072;15.132;2022-07-17T13:57:08;26.80;82.30
20929;DHT22;21895;47.072;15.132;2022-07-17T13:59:34;26.90;82.10
20929;DHT22;21895;47.072;15.132;2022-07-17T14:02:01;26.80;82.20
20929;DHT22;21895;47.072;15.132;2022-07-17T14:04:28;26.80;83.20
20929;DHT22;21895;47.072;15.132;2022-07-17T14:06:54;26.90;82.40
20929;DHT22;21895;47.072;15.132;2022-07-17T14:09:21;26.90;81.40
20929;DHT22;21895;47.072;15.132;2022-07-17T14:11:47;26.90;80.70
20929;DHT22;21895;47.072;15.132;2022-07-17T14:14:14;26.80;81.00
20929;DHT22;21895;47.072;15.132;2022-07-17T14:16:40;26.70;83.00
20929;DHT22;21895;47.072;15.132;2022-07-17T14:19:07;26.90;81.00
20929;DHT22;21895;47.072;15.132;2022-07-17T14:21:35;26.80;80.20
20929;DHT22;21895;47.072;15.132;2022-07-17T14:24:04;26.70;82.10
20929;DHT22;21895;47.072;15.132;2022-07-17T14:26:32;26.70;82.60
20929;DHT22;21895;47.072;15.132;2022-07-17T14:28:59;26.70;81.80
20929;DHT22;21895;47.072;15.132;2022-07-17T14:31:26;26.70;81.00
20929;DHT22;21895;47.072;15.132;2022-07-17T14:33:53;26.70;82.10
20929;DHT22;21895;47.072;15.132;2022-07-17T14:36:20;26.70;81.70
20929;DHT22;21895;47.072;15.132;2022-07-17T14:38:47;26.70;82.20
20929;DHT22;21895;47.072;15.132;2022-07-17T14:41:14;26.60;82.20
20929;DHT22;21895;47.072;15.132;2022-07-17T14:43:40;26.50;83.80
20929;DHT22;21895;47.072;15.132;2022-07-17T14:46:10;26.50;81.70
20929;DHT22;21895;47.072;15.132;2022-07-17T14:48:37;26.40;83.60
20929;DHT22;21895;47.072;15.132;2022-07-17T14:51:04;26.40;82.50
20929;DHT22;21895;47.072;15.132;2022-07-17T14:53:31;26.40;83.70
20929;DHT22;21895;47.072;15.132;2022-07-17T14:55:58;26.40;83.20
20929;DHT22;21895;47.072;15.132;2022-07-17T14:58:25;26.50;84.10
20929;DHT22;21895;47.072;15.132;2022-07-17T15:00:51;26.50;82.90
20929;DHT22;21895;47.072;15.132;2022-07-17T15:03:18;26.50;83.30
20929;DHT22;21895;47.072;15.132;2022-07-17T15:05:44;26.50;83.20
20929;DHT22;21895;47.072;15.132;2022-07-17T15:08:11;26.40;84.90
20929;DHT22;21895;47.072;15.132;2022-07-17T15:10:38;26.40;83.40
20929;DHT22;21895;47.072;15.132;2022-07-17T15:13:05;26.40;82.70
20929;DHT22;21895;47.072;15.132;2022-07-17T15:15:31;26.30;83.30
20929;DHT22;21895;47.072;15.132;2022-07-17T15:17:58;26.30;84.20
20929;DHT22;21895;47.072;15.132;2022-07-17T15:20:25;26.20;83.70
20929;DHT22;21895;47.072;15.132;2022-07-17T15:22:52;26.30;84.10
20929;DHT22;21895;47.072;15.132;2022-07-17T15:25:18;26.30;83.80
20929;DHT22;21895;47.072;15.132;2022-07-17T15:27:45;26.30;83.60
20929;DHT22;21895;47.072;15.132;2022-07-17T15:30:12;26.30;83.80